ソチ空港の過去48時間の天気

ソチ空港 (Adler)

現在時刻: 3/26 07:27 MSK (3/26 04:27 UTC) 以下の時間は現地時間です。

過去48時間のMETAR気象情報
時間 風向 風速(m/s) 視程 気温(℃) 湿度(%) 気圧(hPa) 天気現象
26 07:00 北東 5 10km以上 2 81 1014
26 06:30 北東 4 10km以上 1 86 1014
26 06:00 北東 3 10km以上 1 86 1014
26 05:30 北東 4 10km以上 1 86 1014
26 05:00 北東 4 10km以上 2 81 1014
26 04:30 北東 3 10km以上 2 81 1014
26 04:00 北東 3 10km以上 1 86 1014
26 03:30 北東 4 10km以上 2 81 1014
26 03:00 北東 3 10km以上 2 87 1015
26 02:30 北東 3 10km以上 2 81 1015
26 02:00 北東 3 10km以上 2 81 1015
26 01:30 北東 3 10km以上 2 87 1015
26 01:00 北東 3 10km以上 3 81 1015
26 00:30 北東 3 10km以上 2 87 1015
26 00:00 北東 4 10km以上 3 81 1015
25 23:30 北東 3 10km以上 3 81 1015
25 23:00 北東 3 10km以上 3 81 1015
25 22:30 東北東 3 10km以上 3 81 1016
25 22:00 北東 3 10km以上 4 75 1016
25 21:30 北東 3 10km以上 3 81 1016
25 21:00 東北東 2 10km以上 3 81 1016
25 20:30 東北東 2 10km以上 5 70 1016
25 20:00 1 10km以上 7 66 1016
25 19:30 北西 2 10km以上 7 66 1016
25 19:00 西北西 3 10km以上 7 61 1016
25 18:30 西北西 3 10km以上 7 61 1016
25 18:00 西 3 10km以上 8 57 1016
25 17:30 西 3 10km以上 8 57 1016
25 17:00 西 4 10km以上 8 57 1015
25 16:30 西 5 10km以上 8 61 1015
25 16:00 西北西 6 10km以上 9 53 1015
25 15:30 西北西 6 10km以上 9 53 1015
25 15:00 西 6 10km以上 9 53 1015
25 14:30 西北西 5 10km以上 9 57 1016
25 14:00 西 5 10km以上 9 57 1017
25 13:30 西南西 3 10km以上 8 57 1018
25 13:00 南南西 2 10km以上 8 57 1018
25 12:30 南南西 4 10km以上 8 61 1019
25 12:00 南西 4 10km以上 8 57 1019
25 11:30 南西 4 10km以上 8 57 1019
25 11:00 西南西 3 10km以上 8 61 1018
25 10:30 西 3 10km以上 8 61 1018
25 10:00 西 2 10km以上 8 57 1018
25 09:30 北北西 2 10km以上 8 57 1018
25 09:00 北東 3 10km以上 7 57 1018
25 08:30 北東 4 10km以上 6 61 1018
25 08:00 北東 4 10km以上 5 65 1017
25 07:30 北東 4 10km以上 3 75 1017
25 07:00 北東 3 10km以上 1 80 1017
25 06:30 北東 4 10km以上 1 80 1018
25 06:00 北東 3 10km以上 0 86 1018
25 05:30 北東 4 10km以上 0 86 1018
25 05:00 北東 4 10km以上 1 80 1019
25 04:30 北東 4 10km以上 1 80 1019
25 04:00 北東 4 10km以上 0 86 1019
25 03:30 北東 3 10km以上 1 86 1019
25 03:00 北東 3 10km以上 0 93 1019
25 02:30 北東 3 10km以上 1 86 1019
25 02:00 東北東 3 10km以上 0 86 1020
25 01:30 北東 4 10km以上 1 86 1020
25 01:00 北東 3 10km以上 1 86 1020
25 00:30 北東 3 10km以上 1 86 1020
25 00:00 北東 4 10km以上 2 87 1020
24 23:30 北東 3 10km以上 2 87 1020
24 23:00 北東 3 10km以上 2 87 1020
24 22:30 東北東 3 10km以上 2 87 1020
24 22:00 東北東 3 10km以上 2 87 1020
24 21:30 東北東 2 10km以上 3 81 1020
24 21:00 東北東 2 10km以上 3 81 1020
24 20:30 東北東 1 10km以上 4 81 1020
24 20:00 北東 1 10km以上 5 75 1019
24 19:30 1 10km以上 5 75 1019
24 19:00 北西 2 10km以上 6 70 1019
24 18:30 西 3 10km以上 6 70 1019
24 18:00 西北西 3 10km以上 6 65 1019
24 17:30 西北西 3 10km以上 7 66 1019
24 17:00 西 3 10km以上 8 66 1018
24 16:30 西 5 10km以上 8 57 1019
24 16:00 西 4 10km以上 8 53 1018
24 15:30 西 4 10km以上 8 57 1018
24 15:00 西 4 10km以上 8 57 1018
24 14:30 西南西 4 10km以上 9 53 1018
24 14:00 西南西 4 10km以上 9 53 1018
24 13:30 西南西 4 10km以上 8 61 1018
24 13:00 西 5 10km以上 8 61 1018
24 12:30 西 4 10km以上 8 61 1018
24 12:00 西 4 10km以上 8 61 1018
24 11:30 西 4 10km以上 8 61 1019
24 11:00 西北西 3 10km以上 8 61 1019
24 10:30 南南西 1 10km以上 8 57 1019
24 10:00 1 10km以上 8 53 1019
24 09:30 北東 3 10km以上 7 57 1019
24 09:00 北東 3 10km以上 6 70 1018
24 08:30 北東 4 10km以上 6 70 1018
24 08:00 北東 4 10km以上 4 81 1018
24 07:30 北東 3 10km以上 3 81 1018
URSS 260400Z 04005MPS 9999 NSC 02/M01 Q1014 R02/010070 R06/010070 NOSIG RMK R06/02001MPS QFE759
URSS 260330Z 05004MPS 9999 NSC 01/M01 Q1014 R02/010070 R06/010070 NOSIG RMK R06/00000MPS QFE759
URSS 260300Z 05003MPS 9999 NSC 01/M01 Q1014 R02/010070 R06/010070 NOSIG RMK R06/00000MPS QFE759
URSS 260230Z 04004MPS 9999 NSC 01/M01 Q1014 R02/010070 R06/010070 NOSIG RMK R06/34001MPS QFE759
URSS 260200Z 05004MPS 9999 NSC 02/M01 Q1014 R02/010070 R06/010070 NOSIG RMK R06/33001MPS QFE759
URSS 260130Z 05003MPS 9999 NSC 02/M01 Q1014 R02/010070 R06/010070 NOSIG RMK R06/32001MPS QFE759
URSS 260100Z 04003MPS 9999 NSC 01/M01 Q1014 R02/010070 R06/010070 NOSIG RMK R06/00000MPS QFE759
URSS 260030Z 05004MPS 9999 NSC 02/M01 Q1014 R02/010070 R06/010070 NOSIG RMK R06/31001MPS QFE759
URSS 260000Z 04003MPS 9999 NSC 02/M00 Q1015 R02/010070 R06/010070 NOSIG RMK R06/32001MPS QFE760
URSS 252330Z 05003MPS 9999 NSC 02/M01 Q1015 R02/010070 R06/010070 NOSIG RMK R06/31001MPS QFE760
URSS 252300Z 04003MPS 9999 NSC 02/M01 Q1015 R02/010070 R06/010070 NOSIG RMK R06/00000MPS QFE760
URSS 252230Z 05003MPS 9999 NSC 02/M00 Q1015 R02/010070 R06/010070 NOSIG RMK R06/00000MPS QFE760
URSS 252200Z 05003MPS 9999 NSC 03/M00 Q1015 R02/010070 R06/010070 NOSIG RMK R06/00000MPS QFE760
URSS 252130Z 05003MPS 9999 NSC 02/M00 Q1015 R02/010070 R06/010070 NOSIG RMK R06/00000MPS QFE760
URSS 252100Z 05004MPS 9999 NSC 03/M00 Q1015 R02/010070 R06/010070 NOSIG RMK R06/32001MPS QFE760
URSS 252030Z 05003MPS 9999 NSC 03/M00 Q1015 R02/010070 R06/010070 NOSIG RMK R06/03001MPS QFE760
URSS 252000Z 05003MPS 9999 NSC 03/M00 Q1015 R02/010070 R06/010070 NOSIG RMK R06/00000MPS QFE760
URSS 251930Z 06003MPS 9999 NSC 03/M00 Q1016 R02/010070 R06/010070 NOSIG RMK R06/00000MPS QFE760
URSS 251900Z 05003MPS 9999 NSC 04/00 Q1016 R02/010070 R06/010070 NOSIG RMK R06/00000MPS QFE760
URSS 251830Z 05003MPS 9999 NSC 03/M00 Q1016 R02/010070 R06/010070 NOSIG RMK R06/05002MPS QFE761
URSS 251800Z 06002MPS 9999 NSC 03/M00 Q1016 R02/010070 R06/010070 NOSIG RMK R06/07002MPS QFE761
URSS 251730Z 06002MPS 9999 FEW050 05/00 Q1016 R02/010070 R06/010070 NOSIG RMK R06/09002MPS QFE761
URSS 251700Z 08001MPS 9999 FEW050 07/01 Q1016 R02/010070 R06/010070 NOSIG RMK R06/31003MPS QFE761
URSS 251630Z 31002MPS 9999 FEW050 07/01 Q1016 R02/010070 R06/010070 NOSIG RMK R06/31003MPS QFE761
URSS 251600Z 30003MPS 9999 SCT046 07/00 Q1016 R02/010070 R06/////// NOSIG RMK R06/30003MPS QFE760
URSS 251530Z 29003MPS 9999 SCT046 07/M00 Q1016 WS ALL RWY R02/010070 R06/////// NOSIG RMK R06/30003MPS QFE761
URSS 251500Z 28003MPS 9999 BKN046 08/M00 Q1016 WS ALL RWY R02/010070 R06/////// NOSIG RMK R06/29004MPS QFE761
URSS 251430Z 28003MPS 220V310 9999 BKN050 08/M00 Q1016 WS ALL RWY R02/010070 R06/////// NOSIG RMK R06/29004MPS QFE761
URSS 251400Z 28004MPS 9999 BKN050 08/00 Q1015 WS ALL RWY R02/010070 R06/////// NOSIG RMK R06/29005MPS QFE760
URSS 251330Z 27005MPS 9999 SCT060 08/01 Q1015 WS ALL RWY R02/010070 R06/////// NOSIG RMK R06/29006G09MPS QFE760
URSS 251300Z 29006MPS 9999 FEW060 09/M00 Q1015 WS ALL RWY R02/010070 R06/////// NOSIG RMK R06/29007MPS QFE760
URSS 251230Z 29006G14MPS 9999 FEW060 09/00 Q1015 WS ALL RWY R02/010070 R06/////// NOSIG RMK R06/29007G10MPS QFE760
URSS 251200Z 28006MPS 9999 FEW060 09/M00 Q1015 R02/010070 R06/////// NOSIG RMK R06/28007MPS QFE760
URSS 251130Z 29005MPS 9999 SCT060 09/01 Q1016 R02/010070 R06/////// NOSIG RMK R06/29006MPS QFE761
URSS 251100Z 27005MPS 9999 FEW060 09/01 Q1017 R02/010070 R06/////// NOSIG RMK R06/28005G08MPS QFE761
URSS 251030Z 24003MPS 170V330 9999 BKN060 08/M00 Q1018 R02/010070 R06/////// NOSIG RMK R06/27004MPS QFE762
URSS 251000Z 20002MPS 150V260 9999 BKN050CB 08/M00 Q1018 R02/010070 R06/////// NOSIG RMK R06/23003MPS QFE762
URSS 250930Z 20004MPS 170V240 9999 SCT040CB 08/01 Q1019 R02/010070 R06/////// NOSIG RMK R06/21004MPS MT OBSC QFE762
URSS 250900Z 22004MPS 9999 SCT040 08/00 Q1019 R02/010070 R06/////// NOSIG RMK R06/21004G07MPS MT OBSC QFE763
URSS 250830Z 23004MPS 9999 FEW040 08/00 Q1019 R02/010070 R06/////// NOSIG RMK R06/24004MPS MT OBSC QFE762
URSS 250800Z 24003MPS 9999 FEW040 08/01 Q1018 R02/010070 R06/////// NOSIG RMK R06/26004MPS MT OBSC QFE762
URSS 250730Z 26003MPS 9999 FEW040 08/01 Q1018 R02/010070 R06/////// NOSIG RMK R06/27004MPS MT OBSC QFE762
URSS 250700Z 26002MPS 210V300 9999 FEW040 08/M00 Q1018 R02/010070 R06/////// NOSIG RMK R06/26003MPS MT OBSC QFE762
URSS 250630Z 33002MPS 9999 FEW040 08/M00 Q1018 R02/010070 R06/////// NOSIG RMK R06/28003MPS MT OBSC QFE762
URSS 250600Z 04003MPS 9999 FEW040 07/M01 Q1018 R02/010070 R06/010070 NOSIG RMK R06/08002G06MPS MT OBSC QFE762
URSS 250530Z 04004MPS 9999 FEW040 06/M01 Q1018 R02/010070 R06/010070 NOSIG RMK R06/07003MPS MT OBSC QFE762
URSS 250500Z 04004MPS 9999 FEW040 05/M01 Q1017 R02/010070 R06/010070 NOSIG RMK R06/08003MPS MT OBSC QFE762
URSS 250430Z 05004MPS 9999 FEW040 03/M01 Q1017 R02/010070 R06/010070 NOSIG RMK R06/00000MPS MT OBSC QFE762
URSS 250400Z 05003MPS 9999 NSC 01/M02 Q1017 R02/010070 R06/010070 NOSIG RMK R06/34001MPS QFE762
URSS 250330Z 05004MPS 9999 NSC 01/M02 Q1018 R02/010070 R06/010070 NOSIG RMK R06/08002MPS QFE762
URSS 250300Z 05003MPS 9999 NSC 00/M02 Q1018 R02/010070 R06/010070 NOSIG RMK R06/32001MPS QFE762
URSS 250230Z 05004MPS 9999 NSC 00/M02 Q1018 R02/010070 R06/010070 NOSIG RMK R06/07003MPS QFE762
URSS 250200Z 05004MPS 9999 NSC 01/M02 Q1019 R02/010070 R06/010070 NOSIG RMK R06/00000MPS QFE763
URSS 250130Z 05004MPS 9999 NSC 01/M02 Q1019 R02/010070 R06/010070 NOSIG RMK R06/06003MPS QFE763
URSS 250100Z 05004MPS 9999 NSC 00/M02 Q1019 R02/010070 R06/010070 NOSIG RMK R06/08004MPS QFE763
URSS 250030Z 05003MPS 9999 NSC 01/M01 Q1019 R02/010070 R06/010070 NOSIG RMK R06/09002MPS QFE763
URSS 250000Z 05003MPS 9999 NSC 00/M01 Q1019 R02/010070 R06/010070 NOSIG RMK R06/08002MPS QFE763
URSS 242330Z 05003MPS 9999 SCT080 01/M01 Q1019 R02/010070 R06/010070 NOSIG RMK R06/07004MPS QFE763
URSS 242300Z 06003MPS 9999 SCT080 00/M02 Q1020 R02/010070 R06/010070 NOSIG RMK R06/08001MPS QFE763
URSS 242230Z 05004MPS 9999 SCT080 01/M01 Q1020 R02/010070 R06/010070 NOSIG RMK R06/00000MPS QFE763
URSS 242200Z 05003MPS 9999 SCT080 01/M01 Q1020 R02/010070 R06/010070 NOSIG RMK R06/00000MPS QFE764
URSS 242130Z 05003MPS 9999 SCT080 01/M01 Q1020 R02/010070 R06/010070 NOSIG RMK R06/00000MPS QFE764
URSS 242100Z 05004MPS 9999 SCT080 02/M00 Q1020 R02/010070 R06/010070 NOSIG RMK R06/00000MPS QFE764
URSS 242030Z 05003MPS 9999 SCT080 02/M00 Q1020 R02/010070 R06/010070 NOSIG RMK R06/00000MPS QFE764
URSS 242000Z 05003MPS 9999 BKN080 02/M00 Q1020 R02/010070 R06/010070 NOSIG RMK R06/00000MPS QFE764
URSS 241930Z 06003MPS 9999 SCT080 02/M00 Q1020 R02/010070 R06/010070 NOSIG RMK R06/34001MPS QFE764
URSS 241900Z 06003MPS 9999 FEW013 02/M00 Q1020 R02/010070 R06/010070 NOSIG RMK R06/00000MPS MT OBSC QFE764
URSS 241830Z 06002MPS 9999 FEW013 03/00 Q1020 R02/010070 R06/010070 NOSIG RMK R06/36001MPS MT OBSC QFE764
URSS 241800Z 06002MPS 9999 FEW013 03/00 Q1020 R02/010070 R06/010070 NOSIG RMK R06/08003MPS MT OBSC QFE764
URSS 241730Z 06001MPS 9999 FEW020 04/01 Q1020 R02/010070 R06/010070 NOSIG RMK R06/02001MPS MT OBSC QFE763
URSS 241700Z 05001MPS 9999 FEW020 05/01 Q1019 R02/010070 R06/010070 NOSIG RMK R06/34002MPS MT OBSC QFE763
URSS 241630Z 35001MPS 9999 FEW020 05/01 Q1019 R02/010070 R06/010070 NOSIG RMK R06/34002MPS MT OBSC QFE763
URSS 241600Z 31002MPS 9999 FEW020 06/01 Q1019 R02/010070 R06/010070 NOSIG RMK R06/31002G07MPS MT OBSC QFE763
URSS 241530Z 28003MPS 9999 FEW030 SCT100 06/01 Q1019 R02/010070 R06/010070 NOSIG RMK R06/29003MPS MT OBSC QFE763
URSS 241500Z 29003MPS 9999 FEW030 SCT100 06/M00 Q1019 R02/010070 R06/010070 NOSIG RMK R06/29003G06MPS MT OBSC QFE763
URSS 241430Z 30003MPS 9999 FEW030 SCT100 07/01 Q1019 R02/010070 R06/////// NOSIG RMK R06/30004MPS MT OBSC QFE763
URSS 241400Z 28003G08MPS 9999 FEW028 SCT100 08/02 Q1018 R02/010070 R06/////// NOSIG RMK R06/29004G07MPS MT OBSC QFE762
URSS 241330Z 28005MPS 9999 SCT041 08/00 Q1019 R02/010070 R06/////// NOSIG RMK R06/29005MPS MT OBSC QFE762
URSS 241300Z 27004MPS 9999 SCT041 08/M01 Q1018 R02/010070 R06/////// NOSIG RMK R06/29005MPS MT OBSC QFE762
URSS 241230Z 28004MPS 230V320 9999 SCT041 08/00 Q1018 R02/010070 R06/////// NOSIG RMK R06/29005MPS MT OBSC QFE762
URSS 241200Z 27004MPS 230V300 9999 SCT039 08/M00 Q1018 R02/010070 R06/////// NOSIG RMK R06/27005MPS MT OBSC QFE762
URSS 241130Z 25004MPS 9999 FEW040 09/M00 Q1018 R02/010070 R06/////// NOSIG RMK R06/29004MPS MT OBSC QFE762
URSS 241100Z 25004MPS 210V280 9999 FEW040 09/00 Q1018 R02/010070 R06/////// NOSIG RMK R06/26004MPS MT OBSC QFE762
URSS 241030Z 25004G11MPS 220V290 9999 FEW040TCU 08/01 Q1018 R02/010070 R06/////// NOSIG RMK R06/25004G07MPS MT OBSC QFE762
URSS 241000Z 26005MPS 230V300 9999 FEW040TCU 08/01 Q1018 R02/010070 R06/////// NOSIG RMK R06/27005MPS MT OBSC QFE762
URSS 240930Z 26004MPS 9999 FEW040TCU 08/01 Q1018 R02/010070 R06/////// NOSIG RMK R06/25005MPS MT OBSC QFE762
URSS 240900Z 28004MPS 9999 FEW040TCU SCT076 08/01 Q1018 R02/010070 R06/////// NOSIG RMK R06/26004MPS MT OBSC QFE762
URSS 240830Z 27004MPS 210V300 9999 FEW040TCU SCT076 08/01 Q1019 R02/010070 R06/////// NOSIG RMK R06/29004MPS MT OBSC QFE762
URSS 240800Z 29003MPS 260V330 9999 FEW040TCU SCT090 08/01 Q1019 R02/010070 R06/////// NOSIG RMK R06/26003MPS MT OBSC QFE763
URSS 240730Z 21001MPS 9999 FEW040TCU BKN090 08/00 Q1019 R02/010070 R06/////// NOSIG RMK R06/28003MPS MT OBSC QFE763
URSS 240700Z 09001MPS 9999 FEW040TCU BKN090 08/M01 Q1019 R02/190060 R06/////// NOSIG RMK R06/14001MPS MT OBSC QFE763
URSS 240630Z 04003MPS 9999 FEW040TCU BKN090 07/M01 Q1019 R02/190060 R06/////// NOSIG RMK R06/00000MPS MT OBSC QFE763
URSS 240600Z 04003MPS 9999 FEW040TCU BKN090 06/01 Q1018 R02/190060 R06/////// NOSIG RMK R06/07004MPS MT OBSC QFE762
URSS 240530Z 04004MPS 9999 FEW040CB BKN080 06/01 Q1018 R02/190060 R06/190060 NOSIG RMK R06/07004MPS MT OBSC QFE762
URSS 240500Z 05004MPS 9999 SCT040CB OVC093 04/01 Q1018 R02/190060 R06/190060 NOSIG RMK R06/07003MPS MT OBSC QFE762
URSS 240430Z 04003MPS 9999 BKN040CB OVC093 03/00 Q1018 R02/190060 R06/190060 NOSIG RMK R06/07004MPS MT OBSC QFE762